sensor_id;sensor_type;location;lat;lon;timestamp;P1;durP1;ratioP1;P2;durP2;ratioP2
16407;SDS011;8313;49.894;8.084;2023-03-21T00:02:01;4.30;;;2.90;;
16407;SDS011;8313;49.894;8.084;2023-03-21T00:04:27;4.27;;;2.53;;
16407;SDS011;8313;49.894;8.084;2023-03-21T00:06:53;4.33;;;3.03;;
16407;SDS011;8313;49.894;8.084;2023-03-21T00:09:19;2.90;;;2.43;;
16407;SDS011;8313;49.894;8.084;2023-03-21T00:11:45;3.20;;;2.73;;
16407;SDS011;8313;49.894;8.084;2023-03-21T00:14:11;3.00;;;2.70;;
16407;SDS011;8313;49.894;8.084;2023-03-21T00:16:42;2.30;;;2.10;;
16407;SDS011;8313;49.894;8.084;2023-03-21T00:19:09;2.77;;;2.37;;
16407;SDS011;8313;49.894;8.084;2023-03-21T00:21:36;6.20;;;2.73;;
16407;SDS011;8313;49.894;8.084;2023-03-21T00:24:02;3.97;;;3.10;;
16407;SDS011;8313;49.894;8.084;2023-03-21T00:26:29;6.10;;;3.60;;
16407;SDS011;8313;49.894;8.084;2023-03-21T00:28:55;4.73;;;3.87;;
16407;SDS011;8313;49.894;8.084;2023-03-21T00:31:21;3.60;;;3.30;;
16407;SDS011;8313;49.894;8.084;2023-03-21T00:33:48;4.13;;;3.10;;
16407;SDS011;8313;49.894;8.084;2023-03-21T00:36:14;3.03;;;2.80;;
16407;SDS011;8313;49.894;8.084;2023-03-21T00:38:40;3.50;;;3.20;;
16407;SDS011;8313;49.894;8.084;2023-03-21T00:41:07;4.10;;;3.03;;
16407;SDS011;8313;49.894;8.084;2023-03-21T00:43:34;3.60;;;3.30;;
16407;SDS011;8313;49.894;8.084;2023-03-21T00:46:00;5.60;;;2.67;;
16407;SDS011;8313;49.894;8.084;2023-03-21T00:48:28;3.80;;;3.00;;
16407;SDS011;8313;49.894;8.084;2023-03-21T00:50:54;4.37;;;3.20;;
16407;SDS011;8313;49.894;8.084;2023-03-21T00:53:21;3.63;;;2.90;;
16407;SDS011;8313;49.894;8.084;2023-03-21T00:55:47;3.53;;;2.60;;
16407;SDS011;8313;49.894;8.084;2023-03-21T00:58:14;3.20;;;2.60;;
16407;SDS011;8313;49.894;8.084;2023-03-21T01:00:40;2.80;;;2.60;;
16407;SDS011;8313;49.894;8.084;2023-03-21T01:03:06;3.90;;;2.60;;
16407;SDS011;8313;49.894;8.084;2023-03-21T01:05:38;4.60;;;2.90;;
16407;SDS011;8313;49.894;8.084;2023-03-21T01:08:24;6.47;;;3.40;;
16407;SDS011;8313;49.894;8.084;2023-03-21T01:10:52;6.63;;;3.57;;
16407;SDS011;8313;49.894;8.084;2023-03-21T01:13:19;4.43;;;3.50;;
16407;SDS011;8313;49.894;8.084;2023-03-21T01:15:48;5.60;;;3.40;;
16407;SDS011;8313;49.894;8.084;2023-03-21T01:18:17;4.70;;;3.87;;
16407;SDS011;8313;49.894;8.084;2023-03-21T01:20:47;9.03;;;2.80;;
16407;SDS011;8313;49.894;8.084;2023-03-21T01:23:13;4.33;;;2.90;;
16407;SDS011;8313;49.894;8.084;2023-03-21T01:25:40;3.33;;;3.03;;
16407;SDS011;8313;49.894;8.084;2023-03-21T01:28:06;4.10;;;2.80;;
16407;SDS011;8313;49.894;8.084;2023-03-21T01:30:33;6.27;;;2.83;;
16407;SDS011;8313;49.894;8.084;2023-03-21T01:33:01;8.60;;;3.23;;
16407;SDS011;8313;49.894;8.084;2023-03-21T01:35:26;3.73;;;2.40;;
16407;SDS011;8313;49.894;8.084;2023-03-21T01:37:52;2.40;;;2.20;;
16407;SDS011;8313;49.894;8.084;2023-03-21T01:40:20;2.70;;;2.30;;
16407;SDS011;8313;49.894;8.084;2023-03-21T01:42:49;3.07;;;2.73;;
16407;SDS011;8313;49.894;8.084;2023-03-21T01:48:24;2.17;;;1.93;;
16407;SDS011;8313;49.894;8.084;2023-03-21T01:50:56;3.83;;;2.40;;
16407;SDS011;8313;49.894;8.084;2023-03-21T01:53:33;2.60;;;2.37;;
16407;SDS011;8313;49.894;8.084;2023-03-21T01:56:35;3.50;;;2.30;;
16407;SDS011;8313;49.894;8.084;2023-03-21T01:59:10;4.27;;;2.50;;
16407;SDS011;8313;49.894;8.084;2023-03-21T02:02:11;2.90;;;2.07;;
16407;SDS011;8313;49.894;8.084;2023-03-21T02:05:00;5.50;;;2.90;;
16407;SDS011;8313;49.894;8.084;2023-03-21T02:07:31;2.70;;;2.37;;
16407;SDS011;8313;49.894;8.084;2023-03-21T02:10:07;5.20;;;2.50;;
16407;SDS011;8313;49.894;8.084;2023-03-21T02:12:37;3.93;;;2.20;;
16407;SDS011;8313;49.894;8.084;2023-03-21T02:15:05;3.70;;;2.27;;
16407;SDS011;8313;49.894;8.084;2023-03-21T02:17:57;2.73;;;2.43;;
16407;SDS011;8313;49.894;8.084;2023-03-21T02:23:51;5.17;;;2.60;;
16407;SDS011;8313;49.894;8.084;2023-03-21T02:37:47;2.60;;;2.40;;
16407;SDS011;8313;49.894;8.084;2023-03-21T02:40:24;4.60;;;2.73;;
16407;SDS011;8313;49.894;8.084;2023-03-21T02:45:37;3.23;;;2.93;;
16407;SDS011;8313;49.894;8.084;2023-03-21T02:48:34;5.40;;;2.50;;
16407;SDS011;8313;49.894;8.084;2023-03-21T02:51:04;2.47;;;2.27;;
16407;SDS011;8313;49.894;8.084;2023-03-21T02:53:32;4.63;;;2.30;;
16407;SDS011;8313;49.894;8.084;2023-03-21T02:56:05;2.60;;;2.20;;
16407;SDS011;8313;49.894;8.084;2023-03-21T02:58:38;3.73;;;2.70;;
16407;SDS011;8313;49.894;8.084;2023-03-21T03:01:06;7.60;;;3.10;;
16407;SDS011;8313;49.894;8.084;2023-03-21T03:03:37;10.50;;;3.23;;
16407;SDS011;8313;49.894;8.084;2023-03-21T03:06:08;2.70;;;2.07;;
16407;SDS011;8313;49.894;8.084;2023-03-21T03:11:27;4.30;;;2.40;;
16407;SDS011;8313;49.894;8.084;2023-03-21T03:25:40;3.27;;;2.10;;
16407;SDS011;8313;49.894;8.084;2023-03-21T03:28:15;2.67;;;2.40;;
16407;SDS011;8313;49.894;8.084;2023-03-21T03:30:45;3.90;;;2.67;;
16407;SDS011;8313;49.894;8.084;2023-03-21T03:33:13;3.17;;;2.40;;
16407;SDS011;8313;49.894;8.084;2023-03-21T03:35:41;5.20;;;2.17;;
16407;SDS011;8313;49.894;8.084;2023-03-21T03:38:08;3.20;;;2.40;;
16407;SDS011;8313;49.894;8.084;2023-03-21T03:40:40;5.80;;;2.03;;
16407;SDS011;8313;49.894;8.084;2023-03-21T03:43:31;8.63;;;3.00;;
16407;SDS011;8313;49.894;8.084;2023-03-21T03:46:59;5.27;;;2.97;;
16407;SDS011;8313;49.894;8.084;2023-03-21T03:49:05;2.80;;;2.50;;
16407;SDS011;8313;49.894;8.084;2023-03-21T03:51:55;4.63;;;2.23;;
16407;SDS011;8313;49.894;8.084;2023-03-21T03:54:37;4.57;;;2.70;;
16407;SDS011;8313;49.894;8.084;2023-03-21T03:57:06;2.80;;;2.47;;
16407;SDS011;8313;49.894;8.084;2023-03-21T03:59:36;5.70;;;2.90;;
16407;SDS011;8313;49.894;8.084;2023-03-21T04:02:17;4.60;;;3.10;;
16407;SDS011;8313;49.894;8.084;2023-03-21T04:04:44;3.97;;;2.67;;
16407;SDS011;8313;49.894;8.084;2023-03-21T04:07:11;7.63;;;3.37;;
16407;SDS011;8313;49.894;8.084;2023-03-21T04:09:38;4.93;;;3.40;;
16407;SDS011;8313;49.894;8.084;2023-03-21T04:12:04;4.37;;;3.20;;
16407;SDS011;8313;49.894;8.084;2023-03-21T04:14:30;6.20;;;4.20;;
16407;SDS011;8313;49.894;8.084;2023-03-21T04:16:56;9.70;;;3.70;;
16407;SDS011;8313;49.894;8.084;2023-03-21T04:19:21;6.83;;;4.30;;
16407;SDS011;8313;49.894;8.084;2023-03-21T04:21:47;8.17;;;4.10;;
16407;SDS011;8313;49.894;8.084;2023-03-21T04:24:16;5.13;;;3.93;;
16407;SDS011;8313;49.894;8.084;2023-03-21T04:26:42;5.10;;;3.67;;
16407;SDS011;8313;49.894;8.084;2023-03-21T04:29:31;5.70;;;4.17;;
16407;SDS011;8313;49.894;8.084;2023-03-21T04:32:15;6.20;;;3.60;;
16407;SDS011;8313;49.894;8.084;2023-03-21T04:34:45;2.90;;;2.60;;
16407;SDS011;8313;49.894;8.084;2023-03-21T04:37:15;6.10;;;3.47;;
16407;SDS011;8313;49.894;8.084;2023-03-21T04:39:42;4.77;;;2.70;;
16407;SDS011;8313;49.894;8.084;2023-03-21T04:42:07;3.27;;;2.90;;
16407;SDS011;8313;49.894;8.084;2023-03-21T04:44:33;3.07;;;2.50;;
16407;SDS011;8313;49.894;8.084;2023-03-21T04:47:00;4.40;;;2.63;;
16407;SDS011;8313;49.894;8.084;2023-03-21T04:49:26;5.13;;;3.77;;
16407;SDS011;8313;49.894;8.084;2023-03-21T04:51:52;9.50;;;4.00;;
16407;SDS011;8313;49.894;8.084;2023-03-21T04:54:18;5.00;;;3.83;;
16407;SDS011;8313;49.894;8.084;2023-03-21T04:56:45;4.00;;;3.60;;
16407;SDS011;8313;49.894;8.084;2023-03-21T04:59:12;7.63;;;4.60;;
16407;SDS011;8313;49.894;8.084;2023-03-21T05:01:39;8.50;;;5.00;;
16407;SDS011;8313;49.894;8.084;2023-03-21T05:04:08;5.13;;;3.90;;
16407;SDS011;8313;49.894;8.084;2023-03-21T05:06:35;8.33;;;4.13;;
16407;SDS011;8313;49.894;8.084;2023-03-21T05:09:01;7.10;;;4.23;;
16407;SDS011;8313;49.894;8.084;2023-03-21T05:11:34;4.70;;;4.07;;
16407;SDS011;8313;49.894;8.084;2023-03-21T05:14:02;9.00;;;4.53;;
16407;SDS011;8313;49.894;8.084;2023-03-21T05:16:29;9.27;;;5.17;;
16407;SDS011;8313;49.894;8.084;2023-03-21T05:18:56;7.60;;;5.40;;
16407;SDS011;8313;49.894;8.084;2023-03-21T05:21:23;9.40;;;5.27;;
16407;SDS011;8313;49.894;8.084;2023-03-21T05:23:54;10.80;;;5.43;;
16407;SDS011;8313;49.894;8.084;2023-03-21T05:26:22;7.87;;;6.57;;
16407;SDS011;8313;49.894;8.084;2023-03-21T05:29:00;7.33;;;5.30;;
16407;SDS011;8313;49.894;8.084;2023-03-21T05:31:26;9.03;;;5.23;;
16407;SDS011;8313;49.894;8.084;2023-03-21T05:34:02;7.17;;;4.80;;
16407;SDS011;8313;49.894;8.084;2023-03-21T05:36:28;14.40;;;5.10;;
16407;SDS011;8313;49.894;8.084;2023-03-21T05:38:54;7.00;;;4.13;;
16407;SDS011;8313;49.894;8.084;2023-03-21T05:41:19;5.03;;;4.00;;
16407;SDS011;8313;49.894;8.084;2023-03-21T05:43:46;7.90;;;4.87;;
16407;SDS011;8313;49.894;8.084;2023-03-21T05:46:13;6.83;;;4.43;;
16407;SDS011;8313;49.894;8.084;2023-03-21T05:48:40;6.50;;;3.37;;
16407;SDS011;8313;49.894;8.084;2023-03-21T05:51:11;6.30;;;3.53;;
16407;SDS011;8313;49.894;8.084;2023-03-21T05:53:37;4.00;;;2.97;;
16407;SDS011;8313;49.894;8.084;2023-03-21T05:56:03;7.50;;;3.10;;
16407;SDS011;8313;49.894;8.084;2023-03-21T05:58:44;3.47;;;3.17;;
16407;SDS011;8313;49.894;8.084;2023-03-21T06:01:11;3.40;;;2.57;;
16407;SDS011;8313;49.894;8.084;2023-03-21T06:03:39;6.30;;;3.40;;
16407;SDS011;8313;49.894;8.084;2023-03-21T06:06:13;8.20;;;4.27;;
16407;SDS011;8313;49.894;8.084;2023-03-21T06:08:47;7.50;;;3.33;;
16407;SDS011;8313;49.894;8.084;2023-03-21T06:11:47;6.80;;;4.50;;
16407;SDS011;8313;49.894;8.084;2023-03-21T06:14:17;4.83;;;3.90;;
16407;SDS011;8313;49.894;8.084;2023-03-21T06:16:48;4.30;;;3.90;;
16407;SDS011;8313;49.894;8.084;2023-03-21T06:19:15;6.80;;;3.30;;
16407;SDS011;8313;49.894;8.084;2023-03-21T06:21:54;7.07;;;4.03;;
16407;SDS011;8313;49.894;8.084;2023-03-21T06:24:20;9.00;;;4.40;;
16407;SDS011;8313;49.894;8.084;2023-03-21T06:26:46;7.37;;;4.77;;
16407;SDS011;8313;49.894;8.084;2023-03-21T06:29:13;6.40;;;4.63;;
16407;SDS011;8313;49.894;8.084;2023-03-21T06:31:44;7.13;;;4.30;;
16407;SDS011;8313;49.894;8.084;2023-03-21T06:34:10;3.93;;;3.27;;
16407;SDS011;8313;49.894;8.084;2023-03-21T06:36:36;4.87;;;3.47;;
16407;SDS011;8313;49.894;8.084;2023-03-21T06:39:03;8.87;;;4.40;;
16407;SDS011;8313;49.894;8.084;2023-03-21T06:41:30;5.70;;;3.77;;
16407;SDS011;8313;49.894;8.084;2023-03-21T06:44:00;6.40;;;3.90;;
16407;SDS011;8313;49.894;8.084;2023-03-21T06:46:29;3.77;;;3.10;;
16407;SDS011;8313;49.894;8.084;2023-03-21T06:48:55;5.60;;;3.20;;
16407;SDS011;8313;49.894;8.084;2023-03-21T06:51:21;5.90;;;3.10;;
16407;SDS011;8313;49.894;8.084;2023-03-21T06:53:58;2.80;;;2.60;;
16407;SDS011;8313;49.894;8.084;2023-03-21T06:56:32;5.87;;;2.83;;
16407;SDS011;8313;49.894;8.084;2023-03-21T06:59:00;6.30;;;4.10;;
16407;SDS011;8313;49.894;8.084;2023-03-21T07:01:45;4.10;;;3.33;;
16407;SDS011;8313;49.894;8.084;2023-03-21T07:04:11;7.90;;;3.73;;
16407;SDS011;8313;49.894;8.084;2023-03-21T07:06:37;3.63;;;3.17;;
16407;SDS011;8313;49.894;8.084;2023-03-21T07:09:04;9.40;;;3.87;;
16407;SDS011;8313;49.894;8.084;2023-03-21T07:11:31;4.13;;;3.20;;
16407;SDS011;8313;49.894;8.084;2023-03-21T07:13:59;9.93;;;4.37;;
16407;SDS011;8313;49.894;8.084;2023-03-21T07:16:25;7.40;;;4.47;;
16407;SDS011;8313;49.894;8.084;2023-03-21T07:18:51;4.33;;;3.57;;
16407;SDS011;8313;49.894;8.084;2023-03-21T07:21:17;11.03;;;3.50;;
16407;SDS011;8313;49.894;8.084;2023-03-21T07:23:43;7.83;;;4.07;;
16407;SDS011;8313;49.894;8.084;2023-03-21T07:26:09;7.13;;;4.37;;
16407;SDS011;8313;49.894;8.084;2023-03-21T07:28:35;7.17;;;4.43;;
16407;SDS011;8313;49.894;8.084;2023-03-21T07:31:03;4.80;;;3.60;;
16407;SDS011;8313;49.894;8.084;2023-03-21T07:33:31;4.67;;;3.87;;
16407;SDS011;8313;49.894;8.084;2023-03-21T07:35:59;6.07;;;3.93;;
16407;SDS011;8313;49.894;8.084;2023-03-21T07:38:26;6.33;;;4.47;;
16407;SDS011;8313;49.894;8.084;2023-03-21T07:40:52;9.83;;;7.10;;
16407;SDS011;8313;49.894;8.084;2023-03-21T07:43:18;10.53;;;5.87;;
16407;SDS011;8313;49.894;8.084;2023-03-21T07:45:44;7.80;;;6.50;;
16407;SDS011;8313;49.894;8.084;2023-03-21T07:48:10;18.13;;;8.83;;
16407;SDS011;8313;49.894;8.084;2023-03-21T07:50:37;16.87;;;9.33;;
16407;SDS011;8313;49.894;8.084;2023-03-21T07:53:05;8.70;;;6.13;;
16407;SDS011;8313;49.894;8.084;2023-03-21T07:55:31;9.77;;;5.57;;
16407;SDS011;8313;49.894;8.084;2023-03-21T07:57:59;5.20;;;4.40;;
16407;SDS011;8313;49.894;8.084;2023-03-21T08:00:26;8.03;;;4.60;;
16407;SDS011;8313;49.894;8.084;2023-03-21T08:02:52;10.80;;;4.73;;
16407;SDS011;8313;49.894;8.084;2023-03-21T08:05:23;7.17;;;4.67;;
16407;SDS011;8313;49.894;8.084;2023-03-21T08:07:51;5.50;;;3.97;;
16407;SDS011;8313;49.894;8.084;2023-03-21T08:10:17;7.27;;;5.00;;
16407;SDS011;8313;49.894;8.084;2023-03-21T08:12:43;5.93;;;4.07;;
16407;SDS011;8313;49.894;8.084;2023-03-21T08:15:09;6.23;;;4.87;;
16407;SDS011;8313;49.894;8.084;2023-03-21T08:17:36;5.37;;;3.80;;
16407;SDS011;8313;49.894;8.084;2023-03-21T08:20:04;6.37;;;3.30;;
16407;SDS011;8313;49.894;8.084;2023-03-21T08:22:36;12.33;;;3.93;;
16407;SDS011;8313;49.894;8.084;2023-03-21T08:25:03;6.17;;;3.77;;
16407;SDS011;8313;49.894;8.084;2023-03-21T08:27:30;6.00;;;4.03;;
16407;SDS011;8313;49.894;8.084;2023-03-21T08:29:56;5.50;;;4.07;;
16407;SDS011;8313;49.894;8.084;2023-03-21T08:32:22;4.97;;;3.37;;
16407;SDS011;8313;49.894;8.084;2023-03-21T08:34:53;6.33;;;3.70;;
16407;SDS011;8313;49.894;8.084;2023-03-21T08:37:22;7.17;;;4.23;;
16407;SDS011;8313;49.894;8.084;2023-03-21T08:39:48;5.17;;;3.30;;
16407;SDS011;8313;49.894;8.084;2023-03-21T08:42:14;9.23;;;4.20;;
16407;SDS011;8313;49.894;8.084;2023-03-21T08:44:40;6.37;;;3.87;;
16407;SDS011;8313;49.894;8.084;2023-03-21T08:47:06;4.63;;;4.07;;
16407;SDS011;8313;49.894;8.084;2023-03-21T08:49:33;4.60;;;4.10;;
16407;SDS011;8313;49.894;8.084;2023-03-21T08:51:59;3.50;;;3.20;;
16407;SDS011;8313;49.894;8.084;2023-03-21T08:54:25;5.80;;;3.80;;
16407;SDS011;8313;49.894;8.084;2023-03-21T08:56:51;4.00;;;3.60;;
16407;SDS011;8313;49.894;8.084;2023-03-21T08:59:17;6.67;;;3.70;;
16407;SDS011;8313;49.894;8.084;2023-03-21T09:01:43;5.50;;;4.27;;
16407;SDS011;8313;49.894;8.084;2023-03-21T09:04:09;6.33;;;3.50;;
16407;SDS011;8313;49.894;8.084;2023-03-21T09:06:41;13.10;;;3.90;;
16407;SDS011;8313;49.894;8.084;2023-03-21T09:09:09;7.03;;;3.47;;
16407;SDS011;8313;49.894;8.084;2023-03-21T09:11:36;10.67;;;3.30;;
16407;SDS011;8313;49.894;8.084;2023-03-21T09:14:02;4.60;;;3.87;;
16407;SDS011;8313;49.894;8.084;2023-03-21T09:16:28;5.87;;;3.90;;
16407;SDS011;8313;49.894;8.084;2023-03-21T09:18:54;6.57;;;3.43;;
16407;SDS011;8313;49.894;8.084;2023-03-21T09:21:21;5.37;;;3.60;;
16407;SDS011;8313;49.894;8.084;2023-03-21T09:23:48;5.80;;;3.73;;
16407;SDS011;8313;49.894;8.084;2023-03-21T09:26:16;4.97;;;3.63;;
16407;SDS011;8313;49.894;8.084;2023-03-21T09:28:43;5.30;;;3.60;;
16407;SDS011;8313;49.894;8.084;2023-03-21T09:31:10;6.03;;;3.80;;
16407;SDS011;8313;49.894;8.084;2023-03-21T09:33:40;5.07;;;3.80;;
16407;SDS011;8313;49.894;8.084;2023-03-21T09:36:10;5.37;;;3.27;;
16407;SDS011;8313;49.894;8.084;2023-03-21T09:38:38;4.70;;;4.23;;
16407;SDS011;8313;49.894;8.084;2023-03-21T09:44:12;5.60;;;3.57;;
16407;SDS011;8313;49.894;8.084;2023-03-21T09:46:49;3.53;;;3.13;;
16407;SDS011;8313;49.894;8.084;2023-03-21T09:49:21;8.37;;;3.97;;
16407;SDS011;8313;49.894;8.084;2023-03-21T09:51:55;4.90;;;3.80;;
16407;SDS011;8313;49.894;8.084;2023-03-21T09:54:34;6.70;;;3.43;;
16407;SDS011;8313;49.894;8.084;2023-03-21T09:59:53;4.57;;;3.53;;
16407;SDS011;8313;49.894;8.084;2023-03-21T10:02:36;7.27;;;4.00;;
16407;SDS011;8313;49.894;8.084;2023-03-21T10:05:23;6.63;;;4.30;;
16407;SDS011;8313;49.894;8.084;2023-03-21T10:07:59;6.90;;;4.50;;
16407;SDS011;8313;49.894;8.084;2023-03-21T10:10:50;5.47;;;3.77;;
16407;SDS011;8313;49.894;8.084;2023-03-21T10:13:21;4.37;;;3.40;;
16407;SDS011;8313;49.894;8.084;2023-03-21T10:15:55;8.73;;;3.90;;
16407;SDS011;8313;49.894;8.084;2023-03-21T10:18:23;5.80;;;3.97;;
16407;SDS011;8313;49.894;8.084;2023-03-21T10:20:52;4.43;;;3.87;;
16407;SDS011;8313;49.894;8.084;2023-03-21T10:23:19;7.70;;;4.50;;
16407;SDS011;8313;49.894;8.084;2023-03-21T10:25:51;6.57;;;4.90;;
16407;SDS011;8313;49.894;8.084;2023-03-21T10:28:22;6.27;;;4.67;;
16407;SDS011;8313;49.894;8.084;2023-03-21T10:30:53;5.23;;;4.43;;
16407;SDS011;8313;49.894;8.084;2023-03-21T10:33:33;7.87;;;3.37;;
16407;SDS011;8313;49.894;8.084;2023-03-21T10:36:02;6.57;;;3.60;;
16407;SDS011;8313;49.894;8.084;2023-03-21T10:38:31;3.30;;;3.03;;
16407;SDS011;8313;49.894;8.084;2023-03-21T10:40:57;5.40;;;3.50;;
16407;SDS011;8313;49.894;8.084;2023-03-21T10:45:51;10.10;;;3.90;;
16407;SDS011;8313;49.894;8.084;2023-03-21T10:48:18;5.00;;;4.47;;
16407;SDS011;8313;49.894;8.084;2023-03-21T10:50:46;5.77;;;3.60;;
16407;SDS011;8313;49.894;8.084;2023-03-21T10:53:34;5.50;;;4.27;;
16407;SDS011;8313;49.894;8.084;2023-03-21T10:56:03;4.00;;;3.33;;
16407;SDS011;8313;49.894;8.084;2023-03-21T10:58:34;6.80;;;3.07;;
16407;SDS011;8313;49.894;8.084;2023-03-21T11:01:10;7.30;;;4.07;;
16407;SDS011;8313;49.894;8.084;2023-03-21T11:03:41;3.93;;;2.97;;
16407;SDS011;8313;49.894;8.084;2023-03-21T11:08:46;4.07;;;3.47;;
16407;SDS011;8313;49.894;8.084;2023-03-21T11:13:57;8.50;;;3.57;;
16407;SDS011;8313;49.894;8.084;2023-03-21T11:16:35;3.80;;;3.33;;
16407;SDS011;8313;49.894;8.084;2023-03-21T11:19:02;3.63;;;3.10;;
16407;SDS011;8313;49.894;8.084;2023-03-21T11:21:36;3.77;;;3.30;;
16407;SDS011;8313;49.894;8.084;2023-03-21T11:24:03;4.40;;;3.27;;
16407;SDS011;8313;49.894;8.084;2023-03-21T11:26:32;4.63;;;3.20;;
16407;SDS011;8313;49.894;8.084;2023-03-21T11:32:09;5.60;;;3.20;;
16407;SDS011;8313;49.894;8.084;2023-03-21T11:34:46;5.30;;;3.23;;
16407;SDS011;8313;49.894;8.084;2023-03-21T11:37:19;4.23;;;3.50;;
16407;SDS011;8313;49.894;8.084;2023-03-21T11:39:53;3.57;;;2.90;;
16407;SDS011;8313;49.894;8.084;2023-03-21T11:42:41;3.57;;;2.73;;
16407;SDS011;8313;49.894;8.084;2023-03-21T11:45:16;6.53;;;3.57;;
16407;SDS011;8313;49.894;8.084;2023-03-21T11:47:42;5.60;;;3.30;;
16407;SDS011;8313;49.894;8.084;2023-03-21T11:50:17;9.23;;;3.40;;
16407;SDS011;8313;49.894;8.084;2023-03-21T12:04:02;5.30;;;3.00;;
16407;SDS011;8313;49.894;8.084;2023-03-21T12:06:35;7.93;;;3.50;;
16407;SDS011;8313;49.894;8.084;2023-03-21T12:17:39;4.80;;;3.23;;
16407;SDS011;8313;49.894;8.084;2023-03-21T12:20:33;3.50;;;3.17;;
16407;SDS011;8313;49.894;8.084;2023-03-21T12:39:29;4.17;;;2.93;;
16407;SDS011;8313;49.894;8.084;2023-03-21T12:44:51;3.67;;;2.90;;
16407;SDS011;8313;49.894;8.084;2023-03-21T12:47:23;3.30;;;2.73;;
16407;SDS011;8313;49.894;8.084;2023-03-21T12:50:02;3.33;;;2.70;;
16407;SDS011;8313;49.894;8.084;2023-03-21T12:52:42;5.93;;;3.53;;
16407;SDS011;8313;49.894;8.084;2023-03-21T12:57:55;6.20;;;4.87;;
16407;SDS011;8313;49.894;8.084;2023-03-21T13:00:27;5.67;;;4.57;;
16407;SDS011;8313;49.894;8.084;2023-03-21T13:05:57;6.50;;;3.60;;
16407;SDS011;8313;49.894;8.084;2023-03-21T13:11:13;4.50;;;3.23;;
16407;SDS011;8313;49.894;8.084;2023-03-21T13:16:20;5.23;;;4.10;;
16407;SDS011;8313;49.894;8.084;2023-03-21T13:21:35;5.17;;;3.80;;
16407;SDS011;8313;49.894;8.084;2023-03-21T13:24:04;6.50;;;4.30;;
16407;SDS011;8313;49.894;8.084;2023-03-21T13:26:49;5.20;;;3.47;;
16407;SDS011;8313;49.894;8.084;2023-03-21T13:29:31;4.77;;;3.77;;
16407;SDS011;8313;49.894;8.084;2023-03-21T13:32:24;4.50;;;3.07;;
16407;SDS011;8313;49.894;8.084;2023-03-21T13:34:59;8.17;;;4.30;;
16407;SDS011;8313;49.894;8.084;2023-03-21T13:37:48;6.00;;;3.70;;
16407;SDS011;8313;49.894;8.084;2023-03-21T13:40:20;4.27;;;3.87;;
16407;SDS011;8313;49.894;8.084;2023-03-21T13:42:50;4.87;;;3.90;;
16407;SDS011;8313;49.894;8.084;2023-03-21T13:45:25;6.17;;;4.27;;
16407;SDS011;8313;49.894;8.084;2023-03-21T13:48:05;4.13;;;3.73;;
16407;SDS011;8313;49.894;8.084;2023-03-21T13:50:59;5.80;;;4.37;;
16407;SDS011;8313;49.894;8.084;2023-03-21T13:53:39;8.43;;;4.43;;
16407;SDS011;8313;49.894;8.084;2023-03-21T13:56:19;4.47;;;3.20;;
16407;SDS011;8313;49.894;8.084;2023-03-21T14:12:16;7.80;;;4.10;;
16407;SDS011;8313;49.894;8.084;2023-03-21T14:14:54;6.00;;;4.27;;
16407;SDS011;8313;49.894;8.084;2023-03-21T14:17:31;4.30;;;3.30;;
16407;SDS011;8313;49.894;8.084;2023-03-21T14:19:59;4.37;;;3.20;;
16407;SDS011;8313;49.894;8.084;2023-03-21T14:22:36;4.33;;;3.93;;
16407;SDS011;8313;49.894;8.084;2023-03-21T14:25:03;6.20;;;4.33;;
16407;SDS011;8313;49.894;8.084;2023-03-21T14:27:35;4.93;;;3.83;;
16407;SDS011;8313;49.894;8.084;2023-03-21T14:30:02;5.20;;;4.07;;
16407;SDS011;8313;49.894;8.084;2023-03-21T14:32:28;6.67;;;4.40;;
16407;SDS011;8313;49.894;8.084;2023-03-21T14:34:55;4.90;;;3.97;;
16407;SDS011;8313;49.894;8.084;2023-03-21T14:37:25;4.53;;;3.90;;
16407;SDS011;8313;49.894;8.084;2023-03-21T14:40:45;6.23;;;3.77;;
16407;SDS011;8313;49.894;8.084;2023-03-21T14:43:11;4.73;;;3.90;;
16407;SDS011;8313;49.894;8.084;2023-03-21T14:45:37;8.67;;;3.93;;
16407;SDS011;8313;49.894;8.084;2023-03-21T14:48:09;6.83;;;4.97;;
16407;SDS011;8313;49.894;8.084;2023-03-21T14:55:41;6.60;;;4.30;;
16407;SDS011;8313;49.894;8.084;2023-03-21T14:58:11;7.30;;;4.53;;
16407;SDS011;8313;49.894;8.084;2023-03-21T15:00:39;4.83;;;4.20;;
16407;SDS011;8313;49.894;8.084;2023-03-21T15:03:06;8.43;;;4.07;;
16407;SDS011;8313;49.894;8.084;2023-03-21T15:05:32;8.37;;;4.07;;
16407;SDS011;8313;49.894;8.084;2023-03-21T15:10:40;5.47;;;4.70;;
16407;SDS011;8313;49.894;8.084;2023-03-21T15:13:13;8.77;;;3.90;;
16407;SDS011;8313;49.894;8.084;2023-03-21T15:15:42;4.33;;;3.87;;
16407;SDS011;8313;49.894;8.084;2023-03-21T15:18:10;7.60;;;4.40;;
16407;SDS011;8313;49.894;8.084;2023-03-21T15:20:41;7.47;;;4.00;;
16407;SDS011;8313;49.894;8.084;2023-03-21T15:23:09;10.87;;;6.10;;
16407;SDS011;8313;49.894;8.084;2023-03-21T15:25:39;7.90;;;5.00;;
16407;SDS011;8313;49.894;8.084;2023-03-21T15:28:06;6.10;;;4.63;;
16407;SDS011;8313;49.894;8.084;2023-03-21T15:30:32;6.30;;;4.80;;
16407;SDS011;8313;49.894;8.084;2023-03-21T15:33:04;7.40;;;5.23;;
16407;SDS011;8313;49.894;8.084;2023-03-21T15:35:39;7.00;;;6.30;;
16407;SDS011;8313;49.894;8.084;2023-03-21T15:38:19;8.60;;;6.23;;
16407;SDS011;8313;49.894;8.084;2023-03-21T15:44:27;9.67;;;6.70;;
16407;SDS011;8313;49.894;8.084;2023-03-21T15:46:50;10.80;;;6.13;;
16407;SDS011;8313;49.894;8.084;2023-03-21T15:49:17;11.73;;;7.20;;
16407;SDS011;8313;49.894;8.084;2023-03-21T15:51:55;13.17;;;7.87;;
16407;SDS011;8313;49.894;8.084;2023-03-21T15:56:58;8.23;;;6.60;;
16407;SDS011;8313;49.894;8.084;2023-03-21T15:59:32;6.73;;;5.10;;
16407;SDS011;8313;49.894;8.084;2023-03-21T16:02:01;16.03;;;5.80;;
16407;SDS011;8313;49.894;8.084;2023-03-21T16:04:27;6.53;;;5.07;;
16407;SDS011;8313;49.894;8.084;2023-03-21T16:06:58;6.97;;;4.93;;
16407;SDS011;8313;49.894;8.084;2023-03-21T16:09:26;5.33;;;4.47;;
16407;SDS011;8313;49.894;8.084;2023-03-21T16:11:56;7.77;;;6.17;;
16407;SDS011;8313;49.894;8.084;2023-03-21T16:14:23;6.07;;;4.80;;
16407;SDS011;8313;49.894;8.084;2023-03-21T16:16:52;8.10;;;5.07;;
16407;SDS011;8313;49.894;8.084;2023-03-21T16:19:18;5.57;;;5.07;;
16407;SDS011;8313;49.894;8.084;2023-03-21T16:21:44;7.80;;;6.33;;
16407;SDS011;8313;49.894;8.084;2023-03-21T16:24:11;10.90;;;7.50;;
16407;SDS011;8313;49.894;8.084;2023-03-21T16:26:41;8.83;;;5.97;;
16407;SDS011;8313;49.894;8.084;2023-03-21T16:29:11;6.47;;;5.20;;
16407;SDS011;8313;49.894;8.084;2023-03-21T16:31:38;9.80;;;5.97;;
16407;SDS011;8313;49.894;8.084;2023-03-21T16:34:04;4.50;;;4.10;;
16407;SDS011;8313;49.894;8.084;2023-03-21T16:36:31;9.50;;;5.03;;
16407;SDS011;8313;49.894;8.084;2023-03-21T16:39:14;5.30;;;4.33;;
16407;SDS011;8313;49.894;8.084;2023-03-21T16:41:44;7.80;;;4.93;;
16407;SDS011;8313;49.894;8.084;2023-03-21T16:44:10;9.83;;;5.30;;
16407;SDS011;8313;49.894;8.084;2023-03-21T16:46:36;8.37;;;4.13;;
16407;SDS011;8313;49.894;8.084;2023-03-21T16:49:02;4.87;;;4.37;;
16407;SDS011;8313;49.894;8.084;2023-03-21T16:51:32;8.80;;;5.70;;
16407;SDS011;8313;49.894;8.084;2023-03-21T16:53:59;10.67;;;8.40;;
16407;SDS011;8313;49.894;8.084;2023-03-21T16:56:36;12.23;;;9.93;;
16407;SDS011;8313;49.894;8.084;2023-03-21T16:59:04;13.90;;;9.73;;
16407;SDS011;8313;49.894;8.084;2023-03-21T17:01:31;13.57;;;10.33;;
16407;SDS011;8313;49.894;8.084;2023-03-21T17:03:57;11.13;;;8.20;;
16407;SDS011;8313;49.894;8.084;2023-03-21T17:06:24;11.80;;;7.40;;
16407;SDS011;8313;49.894;8.084;2023-03-21T17:08:52;8.13;;;5.97;;
16407;SDS011;8313;49.894;8.084;2023-03-21T17:11:20;7.90;;;5.63;;
16407;SDS011;8313;49.894;8.084;2023-03-21T17:13:50;7.23;;;4.63;;
16407;SDS011;8313;49.894;8.084;2023-03-21T17:16:19;8.17;;;5.67;;
16407;SDS011;8313;49.894;8.084;2023-03-21T17:18:47;9.03;;;6.20;;
16407;SDS011;8313;49.894;8.084;2023-03-21T17:21:15;9.10;;;6.77;;
16407;SDS011;8313;49.894;8.084;2023-03-21T17:23:45;9.20;;;7.07;;
16407;SDS011;8313;49.894;8.084;2023-03-21T17:26:11;9.47;;;6.97;;
16407;SDS011;8313;49.894;8.084;2023-03-21T17:28:39;5.93;;;5.23;;
16407;SDS011;8313;49.894;8.084;2023-03-21T17:31:12;5.73;;;5.13;;
16407;SDS011;8313;49.894;8.084;2023-03-21T17:33:39;7.00;;;5.80;;